sensor_id;sensor_type;location;lat;lon;timestamp;temperature;humidity
2465;DHT22;1244;54.326;10.074;2023-04-01T00:01:19;8.00;99.90
2465;DHT22;1244;54.326;10.074;2023-04-01T00:03:45;8.00;99.90
2465;DHT22;1244;54.326;10.074;2023-04-01T00:06:12;8.10;99.90
2465;DHT22;1244;54.326;10.074;2023-04-01T00:08:38;8.00;99.90
2465;DHT22;1244;54.326;10.074;2023-04-01T00:11:04;8.00;99.90
2465;DHT22;1244;54.326;10.074;2023-04-01T00:13:30;8.00;99.90
2465;DHT22;1244;54.326;10.074;2023-04-01T00:15:56;8.00;99.90
2465;DHT22;1244;54.326;10.074;2023-04-01T00:18:22;7.90;99.90
2465;DHT22;1244;54.326;10.074;2023-04-01T00:20:49;7.90;99.90
2465;DHT22;1244;54.326;10.074;2023-04-01T00:23:16;7.70;99.90
2465;DHT22;1244;54.326;10.074;2023-04-01T00:25:42;7.70;99.90
2465;DHT22;1244;54.326;10.074;2023-04-01T00:28:08;7.70;99.90
2465;DHT22;1244;54.326;10.074;2023-04-01T00:30:35;7.60;99.90
2465;DHT22;1244;54.326;10.074;2023-04-01T00:33:01;7.60;99.90
2465;DHT22;1244;54.326;10.074;2023-04-01T00:35:27;7.60;99.90
2465;DHT22;1244;54.326;10.074;2023-04-01T00:37:52;7.60;99.90
2465;DHT22;1244;54.326;10.074;2023-04-01T00:40:31;7.50;99.90
2465;DHT22;1244;54.326;10.074;2023-04-01T00:42:57;7.50;99.90
2465;DHT22;1244;54.326;10.074;2023-04-01T00:45:43;7.40;99.90
2465;DHT22;1244;54.326;10.074;2023-04-01T00:48:31;7.50;99.90
2465;DHT22;1244;54.326;10.074;2023-04-01T00:51:03;7.50;99.90
2465;DHT22;1244;54.326;10.074;2023-04-01T00:53:31;7.50;99.90
2465;DHT22;1244;54.326;10.074;2023-04-01T00:56:20;7.30;99.90
2465;DHT22;1244;54.326;10.074;2023-04-01T00:58:51;7.30;99.90
2465;DHT22;1244;54.326;10.074;2023-04-01T01:01:20;7.30;99.90
2465;DHT22;1244;54.326;10.074;2023-04-01T01:03:47;7.30;99.90
2465;DHT22;1244;54.326;10.074;2023-04-01T01:06:46;7.20;99.90
2465;DHT22;1244;54.326;10.074;2023-04-01T01:09:37;7.20;99.90
2465;DHT22;1244;54.326;10.074;2023-04-01T01:22:54;7.10;99.90
2465;DHT22;1244;54.326;10.074;2023-04-01T01:28:13;7.00;99.90
2465;DHT22;1244;54.326;10.074;2023-04-01T01:31:23;6.90;99.90
2465;DHT22;1244;54.326;10.074;2023-04-01T01:36:32;6.90;99.90
2465;DHT22;1244;54.326;10.074;2023-04-01T01:43:58;6.70;99.90
2465;DHT22;1244;54.326;10.074;2023-04-01T01:46:26;6.70;99.90
2465;DHT22;1244;54.326;10.074;2023-04-01T01:48:54;6.70;99.90
2465;DHT22;1244;54.326;10.074;2023-04-01T01:51:21;6.60;99.90
2465;DHT22;1244;54.326;10.074;2023-04-01T01:53:47;6.60;99.90
2465;DHT22;1244;54.326;10.074;2023-04-01T01:56:13;6.60;99.90
2465;DHT22;1244;54.326;10.074;2023-04-01T01:58:45;6.60;99.90
2465;DHT22;1244;54.326;10.074;2023-04-01T02:03:40;6.40;99.90
2465;DHT22;1244;54.326;10.074;2023-04-01T02:06:10;6.40;99.90
2465;DHT22;1244;54.326;10.074;2023-04-01T02:11:19;6.50;99.90
2465;DHT22;1244;54.326;10.074;2023-04-01T02:18:56;6.10;99.90
2465;DHT22;1244;54.326;10.074;2023-04-01T02:21:26;6.40;99.90
2465;DHT22;1244;54.326;10.074;2023-04-01T02:23:54;6.30;99.90
2465;DHT22;1244;54.326;10.074;2023-04-01T02:26:20;6.30;99.90
2465;DHT22;1244;54.326;10.074;2023-04-01T02:28:46;6.20;99.90
2465;DHT22;1244;54.326;10.074;2023-04-01T02:31:14;6.20;99.90
2465;DHT22;1244;54.326;10.074;2023-04-01T02:33:40;6.00;99.90
2465;DHT22;1244;54.326;10.074;2023-04-01T02:36:07;6.20;99.90
2465;DHT22;1244;54.326;10.074;2023-04-01T02:38:35;6.20;99.90
2465;DHT22;1244;54.326;10.074;2023-04-01T02:41:02;6.20;99.90
2465;DHT22;1244;54.326;10.074;2023-04-01T02:43:28;6.10;99.90
2465;DHT22;1244;54.326;10.074;2023-04-01T02:45:54;6.00;99.90
2465;DHT22;1244;54.326;10.074;2023-04-01T02:48:20;6.00;99.90
2465;DHT22;1244;54.326;10.074;2023-04-01T02:50:46;5.90;99.90
2465;DHT22;1244;54.326;10.074;2023-04-01T02:53:11;5.90;99.90
2465;DHT22;1244;54.326;10.074;2023-04-01T02:55:37;5.90;99.90
2465;DHT22;1244;54.326;10.074;2023-04-01T02:58:03;6.00;99.90
2465;DHT22;1244;54.326;10.074;2023-04-01T03:00:29;5.90;99.90
2465;DHT22;1244;54.326;10.074;2023-04-01T03:02:54;5.90;99.90
2465;DHT22;1244;54.326;10.074;2023-04-01T03:05:20;5.90;99.90
2465;DHT22;1244;54.326;10.074;2023-04-01T03:07:46;5.90;99.90
2465;DHT22;1244;54.326;10.074;2023-04-01T03:10:12;5.70;99.90
2465;DHT22;1244;54.326;10.074;2023-04-01T03:12:37;5.70;99.90
2465;DHT22;1244;54.326;10.074;2023-04-01T03:15:03;5.80;99.90
2465;DHT22;1244;54.326;10.074;2023-04-01T03:17:29;5.80;99.90
2465;DHT22;1244;54.326;10.074;2023-04-01T03:19:54;5.80;99.90
2465;DHT22;1244;54.326;10.074;2023-04-01T03:22:20;5.70;99.90
2465;DHT22;1244;54.326;10.074;2023-04-01T03:24:47;5.80;99.90
2465;DHT22;1244;54.326;10.074;2023-04-01T03:27:13;5.70;99.90
2465;DHT22;1244;54.326;10.074;2023-04-01T03:29:38;5.70;99.90
2465;DHT22;1244;54.326;10.074;2023-04-01T03:32:04;5.70;99.90
2465;DHT22;1244;54.326;10.074;2023-04-01T03:34:30;5.70;99.90
2465;DHT22;1244;54.326;10.074;2023-04-01T03:36:56;5.60;99.90
2465;DHT22;1244;54.326;10.074;2023-04-01T03:39:21;5.60;99.90
2465;DHT22;1244;54.326;10.074;2023-04-01T03:41:47;5.50;99.90
2465;DHT22;1244;54.326;10.074;2023-04-01T03:44:13;5.60;99.90
2465;DHT22;1244;54.326;10.074;2023-04-01T03:46:38;5.50;99.90
2465;DHT22;1244;54.326;10.074;2023-04-01T03:49:07;5.50;99.90
2465;DHT22;1244;54.326;10.074;2023-04-01T03:51:43;5.40;99.90
2465;DHT22;1244;54.326;10.074;2023-04-01T03:54:10;5.60;99.90
2465;DHT22;1244;54.326;10.074;2023-04-01T03:56:36;5.50;99.90
2465;DHT22;1244;54.326;10.074;2023-04-01T03:59:04;5.40;99.90
2465;DHT22;1244;54.326;10.074;2023-04-01T04:01:30;5.50;99.90
2465;DHT22;1244;54.326;10.074;2023-04-01T04:03:56;5.40;99.90
2465;DHT22;1244;54.326;10.074;2023-04-01T04:06:23;5.40;99.90
2465;DHT22;1244;54.326;10.074;2023-04-01T04:08:50;5.40;99.90
2465;DHT22;1244;54.326;10.074;2023-04-01T04:11:16;5.40;99.90
2465;DHT22;1244;54.326;10.074;2023-04-01T04:13:42;5.40;99.90
2465;DHT22;1244;54.326;10.074;2023-04-01T04:16:08;5.40;99.90
2465;DHT22;1244;54.326;10.074;2023-04-01T04:18:35;5.50;99.90
2465;DHT22;1244;54.326;10.074;2023-04-01T04:21:01;5.20;99.90
2465;DHT22;1244;54.326;10.074;2023-04-01T04:23:27;5.40;99.90
2465;DHT22;1244;54.326;10.074;2023-04-01T04:25:59;5.30;99.90
2465;DHT22;1244;54.326;10.074;2023-04-01T04:28:26;5.30;99.90
2465;DHT22;1244;54.326;10.074;2023-04-01T04:30:52;5.20;99.90
2465;DHT22;1244;54.326;10.074;2023-04-01T04:33:18;5.30;99.90
2465;DHT22;1244;54.326;10.074;2023-04-01T04:35:43;5.20;99.90
2465;DHT22;1244;54.326;10.074;2023-04-01T04:38:09;5.30;99.90
2465;DHT22;1244;54.326;10.074;2023-04-01T04:40:39;5.30;99.90
2465;DHT22;1244;54.326;10.074;2023-04-01T04:43:05;5.20;99.90
2465;DHT22;1244;54.326;10.074;2023-04-01T04:45:31;5.10;99.90
2465;DHT22;1244;54.326;10.074;2023-04-01T04:47:57;5.20;99.90
2465;DHT22;1244;54.326;10.074;2023-04-01T04:50:23;5.20;99.90
2465;DHT22;1244;54.326;10.074;2023-04-01T04:52:49;5.10;99.90
2465;DHT22;1244;54.326;10.074;2023-04-01T04:55:15;5.10;99.90
2465;DHT22;1244;54.326;10.074;2023-04-01T04:57:41;5.20;99.90
2465;DHT22;1244;54.326;10.074;2023-04-01T05:00:07;5.20;99.90
2465;DHT22;1244;54.326;10.074;2023-04-01T05:02:33;5.00;99.90
2465;DHT22;1244;54.326;10.074;2023-04-01T05:04:59;5.10;99.90
2465;DHT22;1244;54.326;10.074;2023-04-01T05:07:25;5.10;99.90
2465;DHT22;1244;54.326;10.074;2023-04-01T05:09:50;5.20;99.90
2465;DHT22;1244;54.326;10.074;2023-04-01T05:12:16;5.20;99.90
2465;DHT22;1244;54.326;10.074;2023-04-01T05:14:41;5.20;99.90
2465;DHT22;1244;54.326;10.074;2023-04-01T05:17:11;5.10;99.90
2465;DHT22;1244;54.326;10.074;2023-04-01T05:19:37;5.00;99.90
2465;DHT22;1244;54.326;10.074;2023-04-01T05:22:03;5.00;99.90
2465;DHT22;1244;54.326;10.074;2023-04-01T05:24:30;5.10;99.90
2465;DHT22;1244;54.326;10.074;2023-04-01T05:26:55;5.10;99.90
2465;DHT22;1244;54.326;10.074;2023-04-01T05:29:23;5.10;99.90
2465;DHT22;1244;54.326;10.074;2023-04-01T05:31:48;5.00;99.90
2465;DHT22;1244;54.326;10.074;2023-04-01T05:34:14;5.10;99.90
2465;DHT22;1244;54.326;10.074;2023-04-01T05:36:39;5.10;99.90
2465;DHT22;1244;54.326;10.074;2023-04-01T05:39:06;5.20;99.90
2465;DHT22;1244;54.326;10.074;2023-04-01T05:41:35;5.20;99.90
2465;DHT22;1244;54.326;10.074;2023-04-01T05:44:00;4.90;99.90
2465;DHT22;1244;54.326;10.074;2023-04-01T05:46:26;5.10;99.90
2465;DHT22;1244;54.326;10.074;2023-04-01T05:48:51;5.10;99.90
2465;DHT22;1244;54.326;10.074;2023-04-01T05:51:17;5.00;99.90
2465;DHT22;1244;54.326;10.074;2023-04-01T05:53:43;5.10;99.90
2465;DHT22;1244;54.326;10.074;2023-04-01T05:56:08;5.10;99.90
2465;DHT22;1244;54.326;10.074;2023-04-01T05:58:35;5.10;99.90
2465;DHT22;1244;54.326;10.074;2023-04-01T06:01:10;5.00;99.90
2465;DHT22;1244;54.326;10.074;2023-04-01T06:03:36;5.10;99.90
2465;DHT22;1244;54.326;10.074;2023-04-01T06:06:02;5.00;99.90
2465;DHT22;1244;54.326;10.074;2023-04-01T06:08:29;5.00;99.90
2465;DHT22;1244;54.326;10.074;2023-04-01T06:24:29;5.10;99.90
2465;DHT22;1244;54.326;10.074;2023-04-01T06:35:02;5.10;99.90
2465;DHT22;1244;54.326;10.074;2023-04-01T06:38:01;5.10;99.90
2465;DHT22;1244;54.326;10.074;2023-04-01T06:40:55;5.20;99.90
2465;DHT22;1244;54.326;10.074;2023-04-01T06:46:16;5.10;99.90
2465;DHT22;1244;54.326;10.074;2023-04-01T06:49:16;5.10;99.90
2465;DHT22;1244;54.326;10.074;2023-04-01T06:52:19;5.10;99.90
2465;DHT22;1244;54.326;10.074;2023-04-01T06:54:52;5.20;99.90
2465;DHT22;1244;54.326;10.074;2023-04-01T06:57:32;5.10;99.90
2465;DHT22;1244;54.326;10.074;2023-04-01T07:00:04;5.10;99.90
2465;DHT22;1244;54.326;10.074;2023-04-01T07:03:04;5.10;99.90
2465;DHT22;1244;54.326;10.074;2023-04-01T07:05:32;5.20;99.90
2465;DHT22;1244;54.326;10.074;2023-04-01T07:08:02;5.10;99.90
2465;DHT22;1244;54.326;10.074;2023-04-01T07:10:58;5.10;99.90
2465;DHT22;1244;54.326;10.074;2023-04-01T07:13:31;5.10;99.90
2465;DHT22;1244;54.326;10.074;2023-04-01T07:16:30;5.20;99.90
2465;DHT22;1244;54.326;10.074;2023-04-01T07:19:14;5.20;99.90
2465;DHT22;1244;54.326;10.074;2023-04-01T07:21:46;5.10;99.90
2465;DHT22;1244;54.326;10.074;2023-04-01T07:24:23;5.20;99.90
2465;DHT22;1244;54.326;10.074;2023-04-01T07:26:54;5.00;99.90
2465;DHT22;1244;54.326;10.074;2023-04-01T07:29:20;5.10;99.90
2465;DHT22;1244;54.326;10.074;2023-04-01T07:34:28;5.20;99.90
2465;DHT22;1244;54.326;10.074;2023-04-01T07:37:06;5.20;99.90
2465;DHT22;1244;54.326;10.074;2023-04-01T07:39:43;5.20;99.90
2465;DHT22;1244;54.326;10.074;2023-04-01T07:42:36;5.10;99.90
2465;DHT22;1244;54.326;10.074;2023-04-01T07:45:16;5.20;99.90
2465;DHT22;1244;54.326;10.074;2023-04-01T07:53:38;5.20;99.90
2465;DHT22;1244;54.326;10.074;2023-04-01T07:56:10;5.10;99.90
2465;DHT22;1244;54.326;10.074;2023-04-01T08:04:21;5.00;99.90
2465;DHT22;1244;54.326;10.074;2023-04-01T08:09:44;5.10;99.90
2465;DHT22;1244;54.326;10.074;2023-04-01T08:15:25;5.10;99.90
2465;DHT22;1244;54.326;10.074;2023-04-01T08:20:28;5.10;99.90
2465;DHT22;1244;54.326;10.074;2023-04-01T08:26:04;5.00;99.90
2465;DHT22;1244;54.326;10.074;2023-04-01T08:28:45;5.00;99.90
2465;DHT22;1244;54.326;10.074;2023-04-01T08:31:12;5.10;99.90
2465;DHT22;1244;54.326;10.074;2023-04-01T08:33:40;5.00;99.90
2465;DHT22;1244;54.326;10.074;2023-04-01T08:36:28;4.90;99.90
2465;DHT22;1244;54.326;10.074;2023-04-01T08:39:07;4.90;99.90
2465;DHT22;1244;54.326;10.074;2023-04-01T08:56:26;5.10;99.90
2465;DHT22;1244;54.326;10.074;2023-04-01T09:10:35;4.90;99.90
2465;DHT22;1244;54.326;10.074;2023-04-01T09:18:43;4.80;99.90
2465;DHT22;1244;54.326;10.074;2023-04-01T09:21:46;4.80;99.90
2465;DHT22;1244;54.326;10.074;2023-04-01T09:24:44;4.90;99.90
2465;DHT22;1244;54.326;10.074;2023-04-01T09:27:31;4.80;99.90
2465;DHT22;1244;54.326;10.074;2023-04-01T09:30:41;4.70;99.90
2465;DHT22;1244;54.326;10.074;2023-04-01T09:36:33;4.70;99.90
2465;DHT22;1244;54.326;10.074;2023-04-01T09:42:06;4.60;99.90
2465;DHT22;1244;54.326;10.074;2023-04-01T09:50:17;4.80;99.90
2465;DHT22;1244;54.326;10.074;2023-04-01T09:53:07;4.80;99.90
2465;DHT22;1244;54.326;10.074;2023-04-01T10:01:19;4.80;99.90
2465;DHT22;1244;54.326;10.074;2023-04-01T10:15:34;4.80;99.90
2465;DHT22;1244;54.326;10.074;2023-04-01T10:18:21;4.80;99.90
2465;DHT22;1244;54.326;10.074;2023-04-01T10:21:19;4.90;99.90
2465;DHT22;1244;54.326;10.074;2023-04-01T10:24:05;4.90;99.90
2465;DHT22;1244;54.326;10.074;2023-04-01T10:35:28;4.90;99.90
2465;DHT22;1244;54.326;10.074;2023-04-01T10:38:25;4.70;99.90
2465;DHT22;1244;54.326;10.074;2023-04-01T10:41:29;4.60;99.90
2465;DHT22;1244;54.326;10.074;2023-04-01T10:47:11;4.50;99.90
2465;DHT22;1244;54.326;10.074;2023-04-01T10:49:44;4.60;99.90
2465;DHT22;1244;54.326;10.074;2023-04-01T10:52:23;4.40;99.90
2465;DHT22;1244;54.326;10.074;2023-04-01T10:57:56;4.40;99.90
2465;DHT22;1244;54.326;10.074;2023-04-01T11:09:21;4.30;99.90
2465;DHT22;1244;54.326;10.074;2023-04-01T11:25:45;4.40;99.90
2465;DHT22;1244;54.326;10.074;2023-04-01T11:31:37;4.30;99.90
2465;DHT22;1244;54.326;10.074;2023-04-01T11:37:29;4.40;99.90
2465;DHT22;1244;54.326;10.074;2023-04-01T11:42:57;4.50;99.90
2465;DHT22;1244;54.326;10.074;2023-04-01T11:56:13;4.50;99.90
2465;DHT22;1244;54.326;10.074;2023-04-01T12:12:35;4.80;99.90
2465;DHT22;1244;54.326;10.074;2023-04-01T12:20:55;4.90;99.90
2465;DHT22;1244;54.326;10.074;2023-04-01T12:32:36;4.60;99.90
2465;DHT22;1244;54.326;10.074;2023-04-01T12:40:45;4.80;99.90
2465;DHT22;1244;54.326;10.074;2023-04-01T12:45:59;4.80;99.90
2465;DHT22;1244;54.326;10.074;2023-04-01T12:51:39;4.80;99.90
2465;DHT22;1244;54.326;10.074;2023-04-01T12:57:41;4.80;99.90
2465;DHT22;1244;54.326;10.074;2023-04-01T13:00:30;4.80;99.90
2465;DHT22;1244;54.326;10.074;2023-04-01T13:09:05;4.80;99.90
2465;DHT22;1244;54.326;10.074;2023-04-01T13:12:14;4.90;99.90
2465;DHT22;1244;54.326;10.074;2023-04-01T13:20:14;4.70;99.90
2465;DHT22;1244;54.326;10.074;2023-04-01T13:23:09;4.70;99.90
2465;DHT22;1244;54.326;10.074;2023-04-01T13:28:24;4.70;99.90
2465;DHT22;1244;54.326;10.074;2023-04-01T13:31:26;4.80;99.90
2465;DHT22;1244;54.326;10.074;2023-04-01T13:34:07;4.80;99.90
2465;DHT22;1244;54.326;10.074;2023-04-01T13:40:02;4.80;99.90
2465;DHT22;1244;54.326;10.074;2023-04-01T13:42:40;4.80;99.90
2465;DHT22;1244;54.326;10.074;2023-04-01T13:45:17;4.80;99.90
2465;DHT22;1244;54.326;10.074;2023-04-01T13:59:29;4.60;99.90
2465;DHT22;1244;54.326;10.074;2023-04-01T14:02:41;4.70;99.90
2465;DHT22;1244;54.326;10.074;2023-04-01T14:05:39;4.60;99.90
2465;DHT22;1244;54.326;10.074;2023-04-01T14:08:47;4.50;99.90
2465;DHT22;1244;54.326;10.074;2023-04-01T14:11:29;4.50;99.90
2465;DHT22;1244;54.326;10.074;2023-04-01T14:16:55;4.50;99.90
2465;DHT22;1244;54.326;10.074;2023-04-01T14:25:54;4.60;99.90
2465;DHT22;1244;54.326;10.074;2023-04-01T14:40:34;4.50;99.90
2465;DHT22;1244;54.326;10.074;2023-04-01T14:49:17;4.70;99.90
2465;DHT22;1244;54.326;10.074;2023-04-01T14:51:46;4.70;99.90
2465;DHT22;1244;54.326;10.074;2023-04-01T14:54:13;4.70;99.90
2465;DHT22;1244;54.326;10.074;2023-04-01T14:56:43;4.70;99.90
2465;DHT22;1244;54.326;10.074;2023-04-01T14:59:27;4.70;99.90
2465;DHT22;1244;54.326;10.074;2023-04-01T15:02:15;4.60;99.90
2465;DHT22;1244;54.326;10.074;2023-04-01T15:08:00;4.60;99.90
2465;DHT22;1244;54.326;10.074;2023-04-01T15:13:37;4.60;99.90
2465;DHT22;1244;54.326;10.074;2023-04-01T15:16:36;4.80;99.90
2465;DHT22;1244;54.326;10.074;2023-04-01T15:22:07;4.80;99.90
2465;DHT22;1244;54.326;10.074;2023-04-01T15:27:51;4.70;99.90
2465;DHT22;1244;54.326;10.074;2023-04-01T15:30:29;4.60;99.90
2465;DHT22;1244;54.326;10.074;2023-04-01T15:38:49;4.60;99.90
2465;DHT22;1244;54.326;10.074;2023-04-01T15:43:46;4.60;99.90
2465;DHT22;1244;54.326;10.074;2023-04-01T15:46:39;4.60;99.90
2465;DHT22;1244;54.326;10.074;2023-04-01T15:52:24;4.60;99.90
2465;DHT22;1244;54.326;10.074;2023-04-01T16:00:34;4.60;99.90
2465;DHT22;1244;54.326;10.074;2023-04-01T16:03:24;4.60;99.90
2465;DHT22;1244;54.326;10.074;2023-04-01T16:06:10;4.60;99.90
2465;DHT22;1244;54.326;10.074;2023-04-01T16:11:34;4.60;99.90
2465;DHT22;1244;54.326;10.074;2023-04-01T16:17:12;4.80;99.90
2465;DHT22;1244;54.326;10.074;2023-04-01T16:19:51;4.60;99.90
2465;DHT22;1244;54.326;10.074;2023-04-01T16:25:20;4.30;99.90
2465;DHT22;1244;54.326;10.074;2023-04-01T16:28:29;4.50;99.90
2465;DHT22;1244;54.326;10.074;2023-04-01T16:34:20;4.30;99.90
2465;DHT22;1244;54.326;10.074;2023-04-01T16:36:55;4.40;99.90
2465;DHT22;1244;54.326;10.074;2023-04-01T16:42:22;4.40;99.90
2465;DHT22;1244;54.326;10.074;2023-04-01T16:45:15;4.30;99.90
2465;DHT22;1244;54.326;10.074;2023-04-01T16:48:15;4.20;99.90
2465;DHT22;1244;54.326;10.074;2023-04-01T16:53:36;4.30;99.90
2465;DHT22;1244;54.326;10.074;2023-04-01T16:56:13;4.20;99.90
2465;DHT22;1244;54.326;10.074;2023-04-01T16:59:03;4.20;99.90
2465;DHT22;1244;54.326;10.074;2023-04-01T17:01:48;4.10;99.90
2465;DHT22;1244;54.326;10.074;2023-04-01T17:04:37;4.00;99.90
2465;DHT22;1244;54.326;10.074;2023-04-01T17:10:11;3.90;99.90
2465;DHT22;1244;54.326;10.074;2023-04-01T17:15:58;3.90;99.90
2465;DHT22;1244;54.326;10.074;2023-04-01T17:18:34;3.90;99.90
2465;DHT22;1244;54.326;10.074;2023-04-01T17:21:15;3.80;99.90
2465;DHT22;1244;54.326;10.074;2023-04-01T17:24:20;3.80;99.90
2465;DHT22;1244;54.326;10.074;2023-04-01T17:27:18;3.70;99.90
2465;DHT22;1244;54.326;10.074;2023-04-01T17:30:04;3.70;99.90
2465;DHT22;1244;54.326;10.074;2023-04-01T17:38:56;3.60;99.90
2465;DHT22;1244;54.326;10.074;2023-04-01T17:41:47;3.50;99.90
2465;DHT22;1244;54.326;10.074;2023-04-01T17:47:47;3.50;99.90
2465;DHT22;1244;54.326;10.074;2023-04-01T17:50:28;3.40;99.90
2465;DHT22;1244;54.326;10.074;2023-04-01T17:53:02;3.40;99.90
2465;DHT22;1244;54.326;10.074;2023-04-01T17:58:29;3.30;99.90
2465;DHT22;1244;54.326;10.074;2023-04-01T18:01:18;3.30;99.90
2465;DHT22;1244;54.326;10.074;2023-04-01T18:04:06;3.10;99.90
2465;DHT22;1244;54.326;10.074;2023-04-01T18:15:05;3.00;99.90
2465;DHT22;1244;54.326;10.074;2023-04-01T18:17:52;3.20;99.90
2465;DHT22;1244;54.326;10.074;2023-04-01T18:20:33;3.00;99.90
2465;DHT22;1244;54.326;10.074;2023-04-01T18:25:48;3.00;99.90
2465;DHT22;1244;54.326;10.074;2023-04-01T18:31:09;2.90;99.90
2465;DHT22;1244;54.326;10.074;2023-04-01T18:33:44;3.00;99.90
2465;DHT22;1244;54.326;10.074;2023-04-01T18:37:01;2.90;99.90
2465;DHT22;1244;54.326;10.074;2023-04-01T18:39:17;2.90;99.90
2465;DHT22;1244;54.326;10.074;2023-04-01T18:44:50;2.80;99.90
2465;DHT22;1244;54.326;10.074;2023-04-01T18:52:38;2.90;99.90
2465;DHT22;1244;54.326;10.074;2023-04-01T18:55:18;2.90;99.90
2465;DHT22;1244;54.326;10.074;2023-04-01T19:01:06;2.70;99.90
2465;DHT22;1244;54.326;10.074;2023-04-01T19:04:38;2.80;99.90
2465;DHT22;1244;54.326;10.074;2023-04-01T19:06:59;2.70;99.90
2465;DHT22;1244;54.326;10.074;2023-04-01T19:09:52;2.80;99.90
2465;DHT22;1244;54.326;10.074;2023-04-01T19:20:51;2.80;99.90
2465;DHT22;1244;54.326;10.074;2023-04-01T19:23:51;2.80;99.90
2465;DHT22;1244;54.326;10.074;2023-04-01T19:26:40;2.60;99.90
2465;DHT22;1244;54.326;10.074;2023-04-01T19:32:22;2.80;99.90
2465;DHT22;1244;54.326;10.074;2023-04-01T19:43:27;2.60;99.90
2465;DHT22;1244;54.326;10.074;2023-04-01T19:46:19;2.70;99.90
2465;DHT22;1244;54.326;10.074;2023-04-01T19:49:09;2.70;99.90
2465;DHT22;1244;54.326;10.074;2023-04-01T19:54:39;2.60;99.90
2465;DHT22;1244;54.326;10.074;2023-04-01T19:57:25;2.80;99.90
2465;DHT22;1244;54.326;10.074;2023-04-01T20:05:38;2.70;99.90
2465;DHT22;1244;54.326;10.074;2023-04-01T20:13:29;2.50;99.90
2465;DHT22;1244;54.326;10.074;2023-04-01T20:16:04;2.40;99.90
2465;DHT22;1244;54.326;10.074;2023-04-01T20:18:44;2.50;99.90
2465;DHT22;1244;54.326;10.074;2023-04-01T20:21:35;2.60;99.90
2465;DHT22;1244;54.326;10.074;2023-04-01T20:26:37;2.60;99.90
2465;DHT22;1244;54.326;10.074;2023-04-01T20:29:40;2.50;99.90
2465;DHT22;1244;54.326;10.074;2023-04-01T20:32:28;2.50;99.90
2465;DHT22;1244;54.326;10.074;2023-04-01T20:38:07;2.50;99.90
2465;DHT22;1244;54.326;10.074;2023-04-01T20:40:40;2.60;99.90
2465;DHT22;1244;54.326;10.074;2023-04-01T20:46:20;2.70;99.90
2465;DHT22;1244;54.326;10.074;2023-04-01T20:51:54;2.70;99.90
2465;DHT22;1244;54.326;10.074;2023-04-01T20:57:31;2.50;99.90
2465;DHT22;1244;54.326;10.074;2023-04-01T21:00:31;2.60;99.90
2465;DHT22;1244;54.326;10.074;2023-04-01T21:06:07;2.50;99.90
2465;DHT22;1244;54.326;10.074;2023-04-01T21:22:35;2.30;99.90
2465;DHT22;1244;54.326;10.074;2023-04-01T21:25:17;2.20;99.90
2465;DHT22;1244;54.326;10.074;2023-04-01T21:27:59;2.30;99.90
2465;DHT22;1244;54.326;10.074;2023-04-01T21:30:42;2.30;99.90
2465;DHT22;1244;54.326;10.074;2023-04-01T21:39:27;2.20;99.90
2465;DHT22;1244;54.326;10.074;2023-04-01T21:56:34;2.10;99.90
2465;DHT22;1244;54.326;10.074;2023-04-01T21:58:53;2.00;99.90
2465;DHT22;1244;54.326;10.074;2023-04-01T22:04:29;2.00;99.90
2465;DHT22;1244;54.326;10.074;2023-04-01T22:07:44;2.10;99.90
2465;DHT22;1244;54.326;10.074;2023-04-01T22:09:52;2.10;99.90
2465;DHT22;1244;54.326;10.074;2023-04-01T22:12:31;2.10;99.90
2465;DHT22;1244;54.326;10.074;2023-04-01T22:17:48;2.00;99.90
2465;DHT22;1244;54.326;10.074;2023-04-01T22:20:38;1.90;99.90
2465;DHT22;1244;54.326;10.074;2023-04-01T22:23:31;2.10;99.90
2465;DHT22;1244;54.326;10.074;2023-04-01T22:29:11;2.30;99.90
2465;DHT22;1244;54.326;10.074;2023-04-01T22:32:04;2.20;99.90
2465;DHT22;1244;54.326;10.074;2023-04-01T22:35:03;2.10;99.90
2465;DHT22;1244;54.326;10.074;2023-04-01T22:37:49;2.20;99.90
2465;DHT22;1244;54.326;10.074;2023-04-01T22:40:50;2.20;99.90
2465;DHT22;1244;54.326;10.074;2023-04-01T22:46:18;2.40;99.90
2465;DHT22;1244;54.326;10.074;2023-04-01T22:49:02;2.20;99.90
2465;DHT22;1244;54.326;10.074;2023-04-01T22:51:40;2.20;99.90
2465;DHT22;1244;54.326;10.074;2023-04-01T22:54:22;2.30;99.90
2465;DHT22;1244;54.326;10.074;2023-04-01T22:57:03;2.40;99.90
2465;DHT22;1244;54.326;10.074;2023-04-01T22:59:52;2.40;99.90
2465;DHT22;1244;54.326;10.074;2023-04-01T23:02:38;2.10;99.90
2465;DHT22;1244;54.326;10.074;2023-04-01T23:05:06;2.30;99.90
2465;DHT22;1244;54.326;10.074;2023-04-01T23:08:00;2.20;99.90
2465;DHT22;1244;54.326;10.074;2023-04-01T23:10:43;2.30;99.90
2465;DHT22;1244;54.326;10.074;2023-04-01T23:13:22;2.30;99.90
2465;DHT22;1244;54.326;10.074;2023-04-01T23:15:53;2.30;99.90
2465;DHT22;1244;54.326;10.074;2023-04-01T23:18:24;2.40;99.90
2465;DHT22;1244;54.326;10.074;2023-04-01T23:21:15;2.30;99.90
2465;DHT22;1244;54.326;10.074;2023-04-01T23:26:55;2.30;99.90
2465;DHT22;1244;54.326;10.074;2023-04-01T23:29:22;2.30;99.90
2465;DHT22;1244;54.326;10.074;2023-04-01T23:31:56;2.40;99.90
2465;DHT22;1244;54.326;10.074;2023-04-01T23:34:34;2.40;99.90
2465;DHT22;1244;54.326;10.074;2023-04-01T23:37:12;2.30;99.90
2465;DHT22;1244;54.326;10.074;2023-04-01T23:39:45;2.10;99.90
2465;DHT22;1244;54.326;10.074;2023-04-01T23:42:28;2.10;99.90
2465;DHT22;1244;54.326;10.074;2023-04-01T23:45:04;2.00;99.90
2465;DHT22;1244;54.326;10.074;2023-04-01T23:47:37;2.10;99.90
2465;DHT22;1244;54.326;10.074;2023-04-01T23:50:10;2.30;99.90
2465;DHT22;1244;54.326;10.074;2023-04-01T23:52:42;2.20;99.90
2465;DHT22;1244;54.326;10.074;2023-04-01T23:55:21;2.10;99.90
